sensor_id;sensor_type;location;lat;lon;timestamp;P1;durP1;ratioP1;P2;durP2;ratioP2
70335;SDS011;57756;47.408;18.940;2022-10-26T00:00:00;0.30;;;0.10;;
70335;SDS011;57756;47.408;18.940;2022-10-26T00:02:26;0.30;;;0.10;;
70335;SDS011;57756;47.408;18.940;2022-10-26T00:04:51;0.22;;;0.00;;
70335;SDS011;57756;47.408;18.940;2022-10-26T00:07:17;0.40;;;0.10;;
70335;SDS011;57756;47.408;18.940;2022-10-26T00:09:42;0.20;;;0.00;;
70335;SDS011;57756;47.408;18.940;2022-10-26T00:12:08;0.20;;;0.00;;
70335;SDS011;57756;47.408;18.940;2022-10-26T00:14:33;0.20;;;0.00;;
70335;SDS011;57756;47.408;18.940;2022-10-26T00:16:59;0.10;;;0.00;;
70335;SDS011;57756;47.408;18.940;2022-10-26T00:19:25;0.30;;;0.10;;
70335;SDS011;57756;47.408;18.940;2022-10-26T00:21:50;0.30;;;0.10;;
70335;SDS011;57756;47.408;18.940;2022-10-26T00:24:16;0.20;;;0.00;;
70335;SDS011;57756;47.408;18.940;2022-10-26T00:26:42;0.30;;;0.00;;
70335;SDS011;57756;47.408;18.940;2022-10-26T00:29:08;0.20;;;0.00;;
70335;SDS011;57756;47.408;18.940;2022-10-26T00:31:36;0.22;;;0.03;;
70335;SDS011;57756;47.408;18.940;2022-10-26T00:34:01;0.67;;;0.37;;
70335;SDS011;57756;47.408;18.940;2022-10-26T00:36:27;0.45;;;0.20;;
70335;SDS011;57756;47.408;18.940;2022-10-26T00:38:53;0.30;;;0.10;;
70335;SDS011;57756;47.408;18.940;2022-10-26T00:41:22;0.82;;;0.30;;
70335;SDS011;57756;47.408;18.940;2022-10-26T00:43:50;0.10;;;0.00;;
70335;SDS011;57756;47.408;18.940;2022-10-26T00:46:49;0.30;;;0.10;;
70335;SDS011;57756;47.408;18.940;2022-10-26T00:49:15;0.20;;;0.00;;
70335;SDS011;57756;47.408;18.940;2022-10-26T00:51:45;1.02;;;0.35;;
70335;SDS011;57756;47.408;18.940;2022-10-26T00:54:17;0.20;;;0.00;;
70335;SDS011;57756;47.408;18.940;2022-10-26T00:56:44;0.60;;;0.20;;
70335;SDS011;57756;47.408;18.940;2022-10-26T00:59:11;0.15;;;0.00;;
70335;SDS011;57756;47.408;18.940;2022-10-26T01:01:39;1.10;;;0.30;;
70335;SDS011;57756;47.408;18.940;2022-10-26T01:04:07;0.22;;;0.00;;
70335;SDS011;57756;47.408;18.940;2022-10-26T01:06:33;0.82;;;0.57;;
70335;SDS011;57756;47.408;18.940;2022-10-26T01:09:00;0.22;;;0.03;;
70335;SDS011;57756;47.408;18.940;2022-10-26T01:11:27;0.25;;;0.05;;
70335;SDS011;57756;47.408;18.940;2022-10-26T01:13:53;0.50;;;0.20;;
70335;SDS011;57756;47.408;18.940;2022-10-26T01:16:34;0.50;;;0.20;;
70335;SDS011;57756;47.408;18.940;2022-10-26T01:24:57;0.20;;;0.00;;
70335;SDS011;57756;47.408;18.940;2022-10-26T01:27:26;0.60;;;0.40;;
70335;SDS011;57756;47.408;18.940;2022-10-26T01:33:08;0.50;;;0.30;;
70335;SDS011;57756;47.408;18.940;2022-10-26T01:43:35;0.40;;;0.20;;
70335;SDS011;57756;47.408;18.940;2022-10-26T01:46:06;0.30;;;0.10;;
70335;SDS011;57756;47.408;18.940;2022-10-26T01:48:33;0.70;;;0.33;;
70335;SDS011;57756;47.408;18.940;2022-10-26T01:51:00;0.47;;;0.20;;
70335;SDS011;57756;47.408;18.940;2022-10-26T01:53:28;0.40;;;0.20;;
70335;SDS011;57756;47.408;18.940;2022-10-26T01:55:54;0.20;;;0.00;;
70335;SDS011;57756;47.408;18.940;2022-10-26T02:04:18;0.30;;;0.10;;
70335;SDS011;57756;47.408;18.940;2022-10-26T02:15:24;0.20;;;0.00;;
70335;SDS011;57756;47.408;18.940;2022-10-26T02:18:14;0.28;;;0.08;;
70335;SDS011;57756;47.408;18.940;2022-10-26T02:20:58;0.30;;;0.10;;
70335;SDS011;57756;47.408;18.940;2022-10-26T02:23:29;0.30;;;0.05;;
70335;SDS011;57756;47.408;18.940;2022-10-26T02:25:59;0.43;;;0.33;;
70335;SDS011;57756;47.408;18.940;2022-10-26T02:28:30;0.30;;;0.10;;
70335;SDS011;57756;47.408;18.940;2022-10-26T02:31:00;0.45;;;0.15;;
70335;SDS011;57756;47.408;18.940;2022-10-26T02:33:28;0.60;;;0.43;;
70335;SDS011;57756;47.408;18.940;2022-10-26T02:35:57;0.30;;;0.05;;
70335;SDS011;57756;47.408;18.940;2022-10-26T02:38:26;0.20;;;0.00;;
70335;SDS011;57756;47.408;18.940;2022-10-26T02:40:54;0.20;;;0.00;;
70335;SDS011;57756;47.408;18.940;2022-10-26T02:43:20;2.88;;;0.85;;
70335;SDS011;57756;47.408;18.940;2022-10-26T02:45:50;0.20;;;0.00;;
70335;SDS011;57756;47.408;18.940;2022-10-26T02:48:18;0.40;;;0.13;;
70335;SDS011;57756;47.408;18.940;2022-10-26T02:56:13;0.50;;;0.45;;
70335;SDS011;57756;47.408;18.940;2022-10-26T02:58:42;0.20;;;0.03;;
70335;SDS011;57756;47.408;18.940;2022-10-26T03:01:11;0.20;;;0.00;;
70335;SDS011;57756;47.408;18.940;2022-10-26T03:03:38;0.20;;;0.00;;
70335;SDS011;57756;47.408;18.940;2022-10-26T03:06:03;0.30;;;0.10;;
70335;SDS011;57756;47.408;18.940;2022-10-26T03:08:29;0.30;;;0.07;;
70335;SDS011;57756;47.408;18.940;2022-10-26T03:10:54;0.60;;;0.50;;
70335;SDS011;57756;47.408;18.940;2022-10-26T03:13:20;0.60;;;0.27;;
70335;SDS011;57756;47.408;18.940;2022-10-26T03:15:46;0.40;;;0.13;;
70335;SDS011;57756;47.408;18.940;2022-10-26T03:18:11;0.20;;;0.10;;
70335;SDS011;57756;47.408;18.940;2022-10-26T03:20:36;0.50;;;0.10;;
70335;SDS011;57756;47.408;18.940;2022-10-26T03:23:02;0.20;;;0.10;;
70335;SDS011;57756;47.408;18.940;2022-10-26T03:25:27;0.50;;;0.30;;
70335;SDS011;57756;47.408;18.940;2022-10-26T03:28:00;0.80;;;0.67;;
70335;SDS011;57756;47.408;18.940;2022-10-26T03:30:27;0.30;;;0.10;;
70335;SDS011;57756;47.408;18.940;2022-10-26T03:32:54;0.30;;;0.10;;
70335;SDS011;57756;47.408;18.940;2022-10-26T03:35:20;0.60;;;0.20;;
70335;SDS011;57756;47.408;18.940;2022-10-26T03:37:45;0.47;;;0.30;;
70335;SDS011;57756;47.408;18.940;2022-10-26T03:40:11;0.47;;;0.20;;
70335;SDS011;57756;47.408;18.940;2022-10-26T03:42:37;0.10;;;0.00;;
70335;SDS011;57756;47.408;18.940;2022-10-26T03:45:03;0.50;;;0.30;;
70335;SDS011;57756;47.408;18.940;2022-10-26T03:47:30;0.20;;;0.00;;
70335;SDS011;57756;47.408;18.940;2022-10-26T03:49:55;0.23;;;0.10;;
70335;SDS011;57756;47.408;18.940;2022-10-26T03:52:21;0.37;;;0.20;;
70335;SDS011;57756;47.408;18.940;2022-10-26T03:54:48;0.10;;;0.00;;
70335;SDS011;57756;47.408;18.940;2022-10-26T03:57:13;0.40;;;0.25;;
70335;SDS011;57756;47.408;18.940;2022-10-26T03:59:39;0.30;;;0.10;;
70335;SDS011;57756;47.408;18.940;2022-10-26T04:02:05;0.30;;;0.10;;
70335;SDS011;57756;47.408;18.940;2022-10-26T04:04:30;0.23;;;0.00;;
70335;SDS011;57756;47.408;18.940;2022-10-26T04:06:56;0.43;;;0.28;;
70335;SDS011;57756;47.408;18.940;2022-10-26T04:09:22;0.10;;;0.00;;
70335;SDS011;57756;47.408;18.940;2022-10-26T04:11:47;0.10;;;0.00;;
70335;SDS011;57756;47.408;18.940;2022-10-26T04:14:13;0.50;;;0.27;;
70335;SDS011;57756;47.408;18.940;2022-10-26T04:16:38;0.27;;;0.17;;
70335;SDS011;57756;47.408;18.940;2022-10-26T04:19:04;0.20;;;0.00;;
70335;SDS011;57756;47.408;18.940;2022-10-26T04:21:29;0.60;;;0.40;;
70335;SDS011;57756;47.408;18.940;2022-10-26T04:23:57;0.63;;;0.35;;
70335;SDS011;57756;47.408;18.940;2022-10-26T04:26:22;0.53;;;0.20;;
70335;SDS011;57756;47.408;18.940;2022-10-26T04:28:48;0.30;;;0.20;;
70335;SDS011;57756;47.408;18.940;2022-10-26T04:31:13;0.30;;;0.10;;
70335;SDS011;57756;47.408;18.940;2022-10-26T04:33:39;0.37;;;0.33;;
70335;SDS011;57756;47.408;18.940;2022-10-26T04:36:04;0.93;;;0.60;;
70335;SDS011;57756;47.408;18.940;2022-10-26T04:38:30;0.63;;;0.52;;
70335;SDS011;57756;47.408;18.940;2022-10-26T04:40:55;0.20;;;0.00;;
70335;SDS011;57756;47.408;18.940;2022-10-26T04:43:21;1.13;;;0.73;;
70335;SDS011;57756;47.408;18.940;2022-10-26T04:45:46;0.20;;;0.00;;
70335;SDS011;57756;47.408;18.940;2022-10-26T04:48:12;0.30;;;0.10;;
70335;SDS011;57756;47.408;18.940;2022-10-26T04:50:38;0.20;;;0.03;;
70335;SDS011;57756;47.408;18.940;2022-10-26T04:53:05;0.43;;;0.40;;
70335;SDS011;57756;47.408;18.940;2022-10-26T04:55:31;0.50;;;0.37;;
70335;SDS011;57756;47.408;18.940;2022-10-26T04:57:57;0.98;;;0.52;;
70335;SDS011;57756;47.408;18.940;2022-10-26T05:00:23;0.30;;;0.20;;
70335;SDS011;57756;47.408;18.940;2022-10-26T05:02:48;1.43;;;0.67;;
70335;SDS011;57756;47.408;18.940;2022-10-26T05:05:14;0.40;;;0.20;;
70335;SDS011;57756;47.408;18.940;2022-10-26T05:07:39;0.30;;;0.20;;
70335;SDS011;57756;47.408;18.940;2022-10-26T05:10:05;0.60;;;0.53;;
70335;SDS011;57756;47.408;18.940;2022-10-26T05:12:31;0.82;;;0.73;;
70335;SDS011;57756;47.408;18.940;2022-10-26T05:14:57;0.93;;;0.60;;
70335;SDS011;57756;47.408;18.940;2022-10-26T05:17:26;0.17;;;0.00;;
70335;SDS011;57756;47.408;18.940;2022-10-26T05:19:52;0.35;;;0.10;;
70335;SDS011;57756;47.408;18.940;2022-10-26T05:22:20;1.40;;;0.55;;
70335;SDS011;57756;47.408;18.940;2022-10-26T05:24:46;0.20;;;0.00;;
70335;SDS011;57756;47.408;18.940;2022-10-26T05:27:12;0.50;;;0.30;;
70335;SDS011;57756;47.408;18.940;2022-10-26T05:29:37;0.77;;;0.57;;
70335;SDS011;57756;47.408;18.940;2022-10-26T05:32:03;0.37;;;0.07;;
70335;SDS011;57756;47.408;18.940;2022-10-26T05:34:29;0.53;;;0.30;;
70335;SDS011;57756;47.408;18.940;2022-10-26T05:36:54;1.20;;;1.00;;
70335;SDS011;57756;47.408;18.940;2022-10-26T05:39:20;2.27;;;1.03;;
70335;SDS011;57756;47.408;18.940;2022-10-26T05:41:46;1.02;;;0.88;;
70335;SDS011;57756;47.408;18.940;2022-10-26T05:44:11;0.43;;;0.30;;
70335;SDS011;57756;47.408;18.940;2022-10-26T05:46:37;0.63;;;0.50;;
70335;SDS011;57756;47.408;18.940;2022-10-26T05:49:02;0.30;;;0.10;;
70335;SDS011;57756;47.408;18.940;2022-10-26T05:51:28;0.50;;;0.30;;
70335;SDS011;57756;47.408;18.940;2022-10-26T05:53:53;0.40;;;0.28;;
70335;SDS011;57756;47.408;18.940;2022-10-26T05:56:19;0.77;;;0.50;;
70335;SDS011;57756;47.408;18.940;2022-10-26T05:58:55;0.30;;;0.10;;
70335;SDS011;57756;47.408;18.940;2022-10-26T06:07:00;0.47;;;0.32;;
70335;SDS011;57756;47.408;18.940;2022-10-26T06:09:26;0.60;;;0.50;;
70335;SDS011;57756;47.408;18.940;2022-10-26T06:11:52;0.73;;;0.40;;
70335;SDS011;57756;47.408;18.940;2022-10-26T06:14:18;1.02;;;0.95;;
70335;SDS011;57756;47.408;18.940;2022-10-26T06:19:51;0.30;;;0.17;;
70335;SDS011;57756;47.408;18.940;2022-10-26T06:25:42;0.43;;;0.30;;
70335;SDS011;57756;47.408;18.940;2022-10-26T06:30:45;0.27;;;0.10;;
70335;SDS011;57756;47.408;18.940;2022-10-26T06:33:11;0.73;;;0.57;;
70335;SDS011;57756;47.408;18.940;2022-10-26T06:38:06;0.30;;;0.10;;
70335;SDS011;57756;47.408;18.940;2022-10-26T06:40:39;1.05;;;0.95;;
70335;SDS011;57756;47.408;18.940;2022-10-26T06:43:16;1.05;;;0.65;;
70335;SDS011;57756;47.408;18.940;2022-10-26T06:45:48;0.68;;;0.47;;
70335;SDS011;57756;47.408;18.940;2022-10-26T06:48:21;0.60;;;0.40;;
70335;SDS011;57756;47.408;18.940;2022-10-26T06:50:52;0.40;;;0.20;;
70335;SDS011;57756;47.408;18.940;2022-10-26T06:56:01;0.98;;;0.35;;
70335;SDS011;57756;47.408;18.940;2022-10-26T06:58:28;2.53;;;2.03;;
70335;SDS011;57756;47.408;18.940;2022-10-26T07:00:57;0.22;;;0.10;;
70335;SDS011;57756;47.408;18.940;2022-10-26T07:03:22;5.38;;;0.63;;
70335;SDS011;57756;47.408;18.940;2022-10-26T07:05:48;0.40;;;0.20;;
70335;SDS011;57756;47.408;18.940;2022-10-26T07:08:14;0.30;;;0.13;;
70335;SDS011;57756;47.408;18.940;2022-10-26T07:10:39;1.00;;;0.83;;
70335;SDS011;57756;47.408;18.940;2022-10-26T07:13:06;1.35;;;0.63;;
70335;SDS011;57756;47.408;18.940;2022-10-26T07:15:33;1.33;;;0.85;;
70335;SDS011;57756;47.408;18.940;2022-10-26T07:17:59;0.60;;;0.40;;
70335;SDS011;57756;47.408;18.940;2022-10-26T07:20:27;0.40;;;0.10;;
70335;SDS011;57756;47.408;18.940;2022-10-26T07:22:53;0.47;;;0.25;;
70335;SDS011;57756;47.408;18.940;2022-10-26T07:25:19;0.30;;;0.10;;
70335;SDS011;57756;47.408;18.940;2022-10-26T07:27:45;0.60;;;0.35;;
70335;SDS011;57756;47.408;18.940;2022-10-26T07:30:11;0.70;;;0.55;;
70335;SDS011;57756;47.408;18.940;2022-10-26T07:32:37;0.33;;;0.17;;
70335;SDS011;57756;47.408;18.940;2022-10-26T07:35:02;0.50;;;0.30;;
70335;SDS011;57756;47.408;18.940;2022-10-26T07:37:28;0.43;;;0.20;;
70335;SDS011;57756;47.408;18.940;2022-10-26T07:39:54;0.40;;;0.10;;
70335;SDS011;57756;47.408;18.940;2022-10-26T07:42:19;0.43;;;0.22;;
70335;SDS011;57756;47.408;18.940;2022-10-26T07:44:45;1.10;;;0.80;;
70335;SDS011;57756;47.408;18.940;2022-10-26T07:47:10;0.45;;;0.22;;
70335;SDS011;57756;47.408;18.940;2022-10-26T07:49:36;1.37;;;0.47;;
70335;SDS011;57756;47.408;18.940;2022-10-26T07:52:01;0.80;;;0.52;;
70335;SDS011;57756;47.408;18.940;2022-10-26T07:54:27;1.33;;;0.93;;
70335;SDS011;57756;47.408;18.940;2022-10-26T07:56:53;0.97;;;0.60;;
70335;SDS011;57756;47.408;18.940;2022-10-26T07:59:18;0.40;;;0.30;;
70335;SDS011;57756;47.408;18.940;2022-10-26T08:01:44;0.80;;;0.40;;
70335;SDS011;57756;47.408;18.940;2022-10-26T08:04:09;0.98;;;0.88;;
70335;SDS011;57756;47.408;18.940;2022-10-26T08:06:35;0.40;;;0.20;;
70335;SDS011;57756;47.408;18.940;2022-10-26T08:09:00;0.43;;;0.27;;
70335;SDS011;57756;47.408;18.940;2022-10-26T08:11:26;0.43;;;0.30;;
70335;SDS011;57756;47.408;18.940;2022-10-26T08:13:52;0.40;;;0.17;;
70335;SDS011;57756;47.408;18.940;2022-10-26T08:16:18;1.65;;;0.32;;
70335;SDS011;57756;47.408;18.940;2022-10-26T08:18:46;0.40;;;0.20;;
70335;SDS011;57756;47.408;18.940;2022-10-26T08:21:12;2.25;;;0.38;;
70335;SDS011;57756;47.408;18.940;2022-10-26T08:23:38;1.05;;;0.60;;
70335;SDS011;57756;47.408;18.940;2022-10-26T08:26:04;1.00;;;0.73;;
70335;SDS011;57756;47.408;18.940;2022-10-26T08:28:30;1.40;;;0.93;;
70335;SDS011;57756;47.408;18.940;2022-10-26T08:30:55;1.63;;;0.65;;
70335;SDS011;57756;47.408;18.940;2022-10-26T08:33:22;0.60;;;0.57;;
70335;SDS011;57756;47.408;18.940;2022-10-26T08:35:48;0.65;;;0.30;;
70335;SDS011;57756;47.408;18.940;2022-10-26T08:38:18;0.60;;;0.32;;
70335;SDS011;57756;47.408;18.940;2022-10-26T08:40:44;1.03;;;0.70;;
70335;SDS011;57756;47.408;18.940;2022-10-26T08:45:39;2.47;;;0.40;;
70335;SDS011;57756;47.408;18.940;2022-10-26T08:48:12;1.02;;;0.52;;
70335;SDS011;57756;47.408;18.940;2022-10-26T08:50:52;0.57;;;0.27;;
70335;SDS011;57756;47.408;18.940;2022-10-26T08:59:21;0.45;;;0.20;;
70335;SDS011;57756;47.408;18.940;2022-10-26T09:01:51;1.33;;;0.60;;
70335;SDS011;57756;47.408;18.940;2022-10-26T09:04:17;1.10;;;1.00;;
70335;SDS011;57756;47.408;18.940;2022-10-26T09:06:50;1.52;;;1.38;;
70335;SDS011;57756;47.408;18.940;2022-10-26T09:09:38;0.60;;;0.40;;
70335;SDS011;57756;47.408;18.940;2022-10-26T09:15:14;1.60;;;0.85;;
70335;SDS011;57756;47.408;18.940;2022-10-26T09:25:33;1.30;;;0.80;;
70335;SDS011;57756;47.408;18.940;2022-10-26T09:28:03;0.95;;;0.57;;
70335;SDS011;57756;47.408;18.940;2022-10-26T09:30:30;1.83;;;1.50;;
70335;SDS011;57756;47.408;18.940;2022-10-26T09:32:57;1.27;;;0.98;;
70335;SDS011;57756;47.408;18.940;2022-10-26T09:35:28;2.30;;;1.20;;
70335;SDS011;57756;47.408;18.940;2022-10-26T09:38:07;5.57;;;2.17;;
70335;SDS011;57756;47.408;18.940;2022-10-26T09:40:47;4.13;;;2.15;;
70335;SDS011;57756;47.408;18.940;2022-10-26T09:43:17;1.52;;;0.75;;
70335;SDS011;57756;47.408;18.940;2022-10-26T09:45:47;5.88;;;2.67;;
70335;SDS011;57756;47.408;18.940;2022-10-26T09:50:57;2.40;;;0.93;;
70335;SDS011;57756;47.408;18.940;2022-10-26T09:53:24;3.83;;;2.72;;
70335;SDS011;57756;47.408;18.940;2022-10-26T09:55:53;3.78;;;1.75;;
70335;SDS011;57756;47.408;18.940;2022-10-26T09:58:26;2.00;;;1.88;;
70335;SDS011;57756;47.408;18.940;2022-10-26T10:00:55;1.13;;;0.65;;
70335;SDS011;57756;47.408;18.940;2022-10-26T10:03:25;1.50;;;1.20;;
70335;SDS011;57756;47.408;18.940;2022-10-26T10:08:41;1.67;;;1.08;;
70335;SDS011;57756;47.408;18.940;2022-10-26T10:11:08;2.10;;;1.53;;
70335;SDS011;57756;47.408;18.940;2022-10-26T10:13:40;1.98;;;1.10;;
70335;SDS011;57756;47.408;18.940;2022-10-26T10:18:43;1.63;;;1.23;;
70335;SDS011;57756;47.408;18.940;2022-10-26T10:21:39;2.07;;;1.60;;
70335;SDS011;57756;47.408;18.940;2022-10-26T10:24:31;4.63;;;2.85;;
70335;SDS011;57756;47.408;18.940;2022-10-26T10:29:41;3.55;;;2.05;;
70335;SDS011;57756;47.408;18.940;2022-10-26T10:32:14;2.78;;;0.52;;
70335;SDS011;57756;47.408;18.940;2022-10-26T10:34:41;2.97;;;1.23;;
70335;SDS011;57756;47.408;18.940;2022-10-26T10:37:15;2.80;;;1.73;;
70335;SDS011;57756;47.408;18.940;2022-10-26T10:40:06;5.43;;;1.13;;
70335;SDS011;57756;47.408;18.940;2022-10-26T10:42:34;3.22;;;1.50;;
70335;SDS011;57756;47.408;18.940;2022-10-26T10:45:03;3.25;;;1.85;;
70335;SDS011;57756;47.408;18.940;2022-10-26T10:47:32;3.57;;;1.50;;
70335;SDS011;57756;47.408;18.940;2022-10-26T10:52:41;3.15;;;2.67;;
70335;SDS011;57756;47.408;18.940;2022-10-26T10:55:14;4.43;;;1.77;;
70335;SDS011;57756;47.408;18.940;2022-10-26T11:00:27;3.63;;;2.33;;
70335;SDS011;57756;47.408;18.940;2022-10-26T11:05:59;4.22;;;1.27;;
70335;SDS011;57756;47.408;18.940;2022-10-26T11:11:16;1.35;;;1.08;;
70335;SDS011;57756;47.408;18.940;2022-10-26T11:16:45;2.00;;;1.13;;
70335;SDS011;57756;47.408;18.940;2022-10-26T11:19:25;1.90;;;0.93;;
70335;SDS011;57756;47.408;18.940;2022-10-26T11:22:04;1.73;;;1.23;;
70335;SDS011;57756;47.408;18.940;2022-10-26T11:24:43;1.65;;;1.15;;
70335;SDS011;57756;47.408;18.940;2022-10-26T11:29:46;3.30;;;1.92;;
70335;SDS011;57756;47.408;18.940;2022-10-26T11:35:44;4.30;;;2.50;;
70335;SDS011;57756;47.408;18.940;2022-10-26T11:43:55;2.53;;;2.30;;
70335;SDS011;57756;47.408;18.940;2022-10-26T11:46:44;1.02;;;0.52;;
70335;SDS011;57756;47.408;18.940;2022-10-26T11:49:27;3.53;;;1.57;;
70335;SDS011;57756;47.408;18.940;2022-10-26T11:54:36;3.75;;;1.60;;
70335;SDS011;57756;47.408;18.940;2022-10-26T11:57:07;3.25;;;2.08;;
70335;SDS011;57756;47.408;18.940;2022-10-26T11:59:36;5.25;;;1.52;;
70335;SDS011;57756;47.408;18.940;2022-10-26T12:02:13;4.40;;;1.53;;
70335;SDS011;57756;47.408;18.940;2022-10-26T12:04:42;2.22;;;1.67;;
70335;SDS011;57756;47.408;18.940;2022-10-26T12:07:12;4.25;;;2.13;;
70335;SDS011;57756;47.408;18.940;2022-10-26T12:09:44;6.90;;;2.85;;
70335;SDS011;57756;47.408;18.940;2022-10-26T12:12:16;3.73;;;2.40;;
70335;SDS011;57756;47.408;18.940;2022-10-26T12:15:02;3.65;;;2.10;;
70335;SDS011;57756;47.408;18.940;2022-10-26T12:20:39;4.70;;;4.20;;
70335;SDS011;57756;47.408;18.940;2022-10-26T12:23:14;3.38;;;1.00;;
70335;SDS011;57756;47.408;18.940;2022-10-26T12:25:41;2.53;;;1.67;;
70335;SDS011;57756;47.408;18.940;2022-10-26T12:28:36;2.23;;;1.77;;
70335;SDS011;57756;47.408;18.940;2022-10-26T12:34:02;5.45;;;3.17;;
70335;SDS011;57756;47.408;18.940;2022-10-26T12:39:29;1.75;;;1.55;;
70335;SDS011;57756;47.408;18.940;2022-10-26T12:44:37;2.58;;;1.70;;
70335;SDS011;57756;47.408;18.940;2022-10-26T12:52:40;3.65;;;1.63;;
70335;SDS011;57756;47.408;18.940;2022-10-26T13:08:36;2.53;;;1.87;;
70335;SDS011;57756;47.408;18.940;2022-10-26T13:11:28;3.92;;;2.05;;
70335;SDS011;57756;47.408;18.940;2022-10-26T13:14:05;6.43;;;2.42;;
70335;SDS011;57756;47.408;18.940;2022-10-26T13:16:33;2.42;;;1.65;;
70335;SDS011;57756;47.408;18.940;2022-10-26T13:18:59;2.63;;;1.33;;
70335;SDS011;57756;47.408;18.940;2022-10-26T13:21:25;2.40;;;1.43;;
70335;SDS011;57756;47.408;18.940;2022-10-26T13:26:17;3.50;;;1.50;;
70335;SDS011;57756;47.408;18.940;2022-10-26T13:28:45;2.35;;;1.90;;
70335;SDS011;57756;47.408;18.940;2022-10-26T13:34:09;4.22;;;1.92;;
70335;SDS011;57756;47.408;18.940;2022-10-26T13:39:37;2.20;;;2.00;;
70335;SDS011;57756;47.408;18.940;2022-10-26T13:42:06;2.40;;;1.38;;
70335;SDS011;57756;47.408;18.940;2022-10-26T13:44:42;3.15;;;2.30;;
70335;SDS011;57756;47.408;18.940;2022-10-26T13:47:14;1.92;;;1.63;;
70335;SDS011;57756;47.408;18.940;2022-10-26T13:49:46;1.98;;;1.55;;
70335;SDS011;57756;47.408;18.940;2022-10-26T13:52:37;4.67;;;1.93;;
70335;SDS011;57756;47.408;18.940;2022-10-26T13:55:08;1.52;;;1.20;;
70335;SDS011;57756;47.408;18.940;2022-10-26T13:57:35;1.52;;;0.75;;
70335;SDS011;57756;47.408;18.940;2022-10-26T14:00:08;3.00;;;1.42;;
70335;SDS011;57756;47.408;18.940;2022-10-26T14:02:40;3.17;;;2.28;;
70335;SDS011;57756;47.408;18.940;2022-10-26T14:05:10;2.80;;;1.93;;
70335;SDS011;57756;47.408;18.940;2022-10-26T14:07:39;2.17;;;1.52;;
70335;SDS011;57756;47.408;18.940;2022-10-26T14:10:42;4.60;;;2.05;;
70335;SDS011;57756;47.408;18.940;2022-10-26T14:13:06;3.17;;;1.20;;
70335;SDS011;57756;47.408;18.940;2022-10-26T14:15:32;2.35;;;0.85;;
70335;SDS011;57756;47.408;18.940;2022-10-26T14:18:00;2.00;;;1.63;;
70335;SDS011;57756;47.408;18.940;2022-10-26T14:20:26;2.35;;;1.55;;
70335;SDS011;57756;47.408;18.940;2022-10-26T14:22:53;2.63;;;1.30;;
70335;SDS011;57756;47.408;18.940;2022-10-26T14:27:49;3.70;;;1.80;;
70335;SDS011;57756;47.408;18.940;2022-10-26T14:32:47;4.15;;;1.92;;
70335;SDS011;57756;47.408;18.940;2022-10-26T14:35:13;4.18;;;1.90;;
70335;SDS011;57756;47.408;18.940;2022-10-26T14:37:44;5.25;;;2.50;;
70335;SDS011;57756;47.408;18.940;2022-10-26T14:40:17;6.50;;;2.67;;
70335;SDS011;57756;47.408;18.940;2022-10-26T14:42:46;3.88;;;1.58;;
70335;SDS011;57756;47.408;18.940;2022-10-26T14:47:51;3.58;;;2.45;;
70335;SDS011;57756;47.408;18.940;2022-10-26T14:50:19;2.15;;;1.50;;
70335;SDS011;57756;47.408;18.940;2022-10-26T14:52:49;3.10;;;1.83;;
70335;SDS011;57756;47.408;18.940;2022-10-26T14:55:18;2.13;;;1.60;;
70335;SDS011;57756;47.408;18.940;2022-10-26T14:57:44;2.35;;;1.42;;
70335;SDS011;57756;47.408;18.940;2022-10-26T15:02:48;3.30;;;1.80;;
70335;SDS011;57756;47.408;18.940;2022-10-26T15:07:50;1.98;;;1.10;;
70335;SDS011;57756;47.408;18.940;2022-10-26T15:13:10;2.55;;;1.52;;
70335;SDS011;57756;47.408;18.940;2022-10-26T15:15:42;2.65;;;1.58;;
70335;SDS011;57756;47.408;18.940;2022-10-26T15:18:12;2.57;;;1.87;;
70335;SDS011;57756;47.408;18.940;2022-10-26T15:20:47;2.28;;;1.88;;
70335;SDS011;57756;47.408;18.940;2022-10-26T15:23:14;3.28;;;1.77;;
70335;SDS011;57756;47.408;18.940;2022-10-26T15:25:40;3.13;;;1.43;;
70335;SDS011;57756;47.408;18.940;2022-10-26T15:31:00;2.25;;;1.60;;
70335;SDS011;57756;47.408;18.940;2022-10-26T15:33:29;2.97;;;2.22;;
70335;SDS011;57756;47.408;18.940;2022-10-26T15:38:53;4.53;;;2.10;;
70335;SDS011;57756;47.408;18.940;2022-10-26T15:43:50;2.63;;;2.03;;
70335;SDS011;57756;47.408;18.940;2022-10-26T15:46:20;4.35;;;2.50;;
70335;SDS011;57756;47.408;18.940;2022-10-26T15:48:48;2.47;;;1.85;;
70335;SDS011;57756;47.408;18.940;2022-10-26T15:51:24;3.30;;;2.30;;
70335;SDS011;57756;47.408;18.940;2022-10-26T15:53:54;3.83;;;2.92;;
70335;SDS011;57756;47.408;18.940;2022-10-26T15:56:21;2.05;;;1.85;;
70335;SDS011;57756;47.408;18.940;2022-10-26T15:58:48;2.40;;;1.92;;
70335;SDS011;57756;47.408;18.940;2022-10-26T16:01:15;2.37;;;1.33;;
70335;SDS011;57756;47.408;18.940;2022-10-26T16:03:43;2.78;;;1.92;;
70335;SDS011;57756;47.408;18.940;2022-10-26T16:06:15;2.53;;;1.77;;
70335;SDS011;57756;47.408;18.940;2022-10-26T16:08:41;2.58;;;1.08;;
70335;SDS011;57756;47.408;18.940;2022-10-26T16:11:13;3.33;;;2.20;;
70335;SDS011;57756;47.408;18.940;2022-10-26T16:13:38;4.67;;;2.63;;
70335;SDS011;57756;47.408;18.940;2022-10-26T16:16:04;2.60;;;1.30;;
70335;SDS011;57756;47.408;18.940;2022-10-26T16:18:37;2.30;;;1.55;;
70335;SDS011;57756;47.408;18.940;2022-10-26T16:21:03;2.47;;;1.15;;
70335;SDS011;57756;47.408;18.940;2022-10-26T16:23:29;2.50;;;1.17;;
70335;SDS011;57756;47.408;18.940;2022-10-26T16:25:54;2.78;;;1.80;;
70335;SDS011;57756;47.408;18.940;2022-10-26T16:28:20;4.37;;;2.50;;
70335;SDS011;57756;47.408;18.940;2022-10-26T16:30:46;4.03;;;1.58;;
70335;SDS011;57756;47.408;18.940;2022-10-26T16:33:11;3.67;;;1.70;;
70335;SDS011;57756;47.408;18.940;2022-10-26T16:35:37;3.22;;;1.60;;
70335;SDS011;57756;47.408;18.940;2022-10-26T16:38:02;3.77;;;2.03;;
70335;SDS011;57756;47.408;18.940;2022-10-26T16:40:28;2.40;;;1.40;;
70335;SDS011;57756;47.408;18.940;2022-10-26T16:42:53;2.58;;;1.98;;
70335;SDS011;57756;47.408;18.940;2022-10-26T16:45:19;2.10;;;1.50;;
70335;SDS011;57756;47.408;18.940;2022-10-26T16:47:44;6.90;;;3.27;;
70335;SDS011;57756;47.408;18.940;2022-10-26T16:50:10;2.85;;;1.67;;
70335;SDS011;57756;47.408;18.940;2022-10-26T16:52:37;2.67;;;1.73;;
70335;SDS011;57756;47.408;18.940;2022-10-26T16:55:04;1.70;;;0.82;;
70335;SDS011;57756;47.408;18.940;2022-10-26T16:57:31;2.83;;;2.08;;
70335;SDS011;57756;47.408;18.940;2022-10-26T16:59:57;2.53;;;1.00;;
70335;SDS011;57756;47.408;18.940;2022-10-26T17:02:22;6.60;;;2.63;;
70335;SDS011;57756;47.408;18.940;2022-10-26T17:04:48;2.00;;;1.27;;
70335;SDS011;57756;47.408;18.940;2022-10-26T17:07:13;2.80;;;1.20;;
70335;SDS011;57756;47.408;18.940;2022-10-26T17:09:39;2.10;;;1.60;;
70335;SDS011;57756;47.408;18.940;2022-10-26T17:12:05;3.38;;;1.17;;
70335;SDS011;57756;47.408;18.940;2022-10-26T17:14:35;3.72;;;2.05;;
70335;SDS011;57756;47.408;18.940;2022-10-26T17:17:00;2.33;;;1.63;;
70335;SDS011;57756;47.408;18.940;2022-10-26T17:19:26;3.10;;;1.10;;
70335;SDS011;57756;47.408;18.940;2022-10-26T17:21:52;4.23;;;2.90;;
70335;SDS011;57756;47.408;18.940;2022-10-26T17:24:17;2.70;;;2.20;;
70335;SDS011;57756;47.408;18.940;2022-10-26T17:26:43;2.67;;;1.85;;
70335;SDS011;57756;47.408;18.940;2022-10-26T17:29:10;1.97;;;1.30;;
70335;SDS011;57756;47.408;18.940;2022-10-26T17:31:37;3.95;;;2.30;;
70335;SDS011;57756;47.408;18.940;2022-10-26T17:34:03;4.47;;;2.08;;
70335;SDS011;57756;47.408;18.940;2022-10-26T17:36:28;3.47;;;2.77;;
70335;SDS011;57756;47.408;18.940;2022-10-26T17:38:55;4.15;;;2.03;;